createdAt,value
2023-01-20T00:01:57.567Z,1.92
2023-01-20T00:04:29.314Z,1.84
2023-01-20T00:07:01.004Z,1.79
2023-01-20T00:09:37.228Z,2.02
2023-01-20T00:12:12.564Z,2.06
2023-01-20T00:14:42.865Z,1.91
2023-01-20T00:17:15.109Z,1.74
2023-01-20T00:19:47.521Z,1.83
2023-01-20T00:22:19.551Z,1.72
2023-01-20T00:24:57.168Z,1.69
2023-01-20T00:27:38.897Z,1.68
2023-01-20T00:30:12.324Z,1.62
2023-01-20T00:32:45.037Z,1.55
2023-01-20T00:35:17.194Z,1.69
2023-01-20T00:37:46.860Z,1.66
2023-01-20T00:40:21.515Z,1.72
2023-01-20T00:42:57.155Z,1.55
2023-01-20T00:45:27.837Z,1.62
2023-01-20T00:47:56.642Z,1.61
2023-01-20T00:50:26.339Z,1.57
2023-01-20T00:53:01.445Z,1.62
2023-01-20T00:55:34.837Z,1.83
2023-01-20T00:58:07.543Z,1.63
2023-01-20T01:00:37.332Z,1.78
2023-01-20T01:03:07.439Z,1.70
2023-01-20T01:05:38.074Z,1.79
2023-01-20T01:08:06.870Z,1.78
2023-01-20T01:10:38.779Z,1.63
2023-01-20T01:13:11.349Z,1.72
2023-01-20T01:15:48.859Z,1.60
2023-01-20T01:18:22.269Z,1.51
2023-01-20T01:20:52.254Z,1.54
2023-01-20T01:23:30.648Z,1.52
2023-01-20T02:04:27.883Z,1.30
2023-01-20T02:54:14.435Z,1.42
2023-01-20T03:21:13.020Z,1.56
2023-01-20T03:32:32.522Z,1.42
2023-01-20T04:41:40.817Z,1.20
2023-01-20T06:20:52.905Z,1.13
2023-01-20T06:23:49.697Z,0.80
2023-01-20T06:42:13.037Z,1.05
2023-01-20T06:44:50.411Z,0.91
2023-01-20T06:47:36.640Z,1.31
2023-01-20T06:50:10.059Z,1.21
2023-01-20T06:52:42.428Z,1.41
2023-01-20T06:55:14.089Z,1.29
2023-01-20T06:57:59.440Z,1.34
2023-01-20T07:00:27.699Z,1.36
2023-01-20T07:03:06.292Z,1.21
2023-01-20T07:05:34.949Z,1.49
2023-01-20T07:08:08.560Z,1.37
2023-01-20T07:10:46.921Z,1.39
2023-01-20T07:13:30.502Z,1.20
2023-01-20T07:15:59.184Z,1.40
2023-01-20T07:18:31.869Z,1.42
2023-01-20T07:21:06.264Z,1.48
2023-01-20T07:23:38.143Z,1.24
2023-01-20T07:26:10.459Z,1.27
2023-01-20T07:28:43.188Z,1.21
2023-01-20T07:31:18.844Z,1.46
2023-01-20T07:33:58.516Z,1.21
2023-01-20T07:36:29.083Z,1.17
2023-01-20T07:39:02.666Z,1.27
2023-01-20T07:41:35.455Z,1.37
2023-01-20T07:53:32.859Z,1.30
2023-01-20T07:56:02.217Z,1.32
2023-01-20T07:58:32.387Z,1.54
2023-01-20T08:01:08.410Z,1.35
2023-01-20T08:03:39.972Z,1.40
2023-01-20T08:06:10.632Z,1.44
2023-01-20T08:08:45.786Z,1.59
2023-01-20T08:11:21.593Z,1.38
2023-01-20T08:13:52.924Z,1.47
2023-01-20T08:16:29.441Z,1.77
2023-01-20T08:19:01.680Z,1.41
2023-01-20T08:21:36.444Z,1.49
2023-01-20T08:24:07.603Z,1.72
2023-01-20T08:26:37.332Z,1.89
2023-01-20T08:29:08.509Z,1.31
2023-01-20T08:31:38.567Z,1.46
2023-01-20T08:34:10.067Z,1.32
2023-01-20T08:36:46.655Z,1.43
2023-01-20T08:46:05.407Z,1.27
2023-01-20T08:48:36.470Z,1.77
2023-01-20T08:51:27.800Z,1.61
2023-01-20T08:53:56.627Z,1.71
2023-01-20T08:59:25.535Z,1.64
2023-01-20T09:02:00.704Z,1.97
2023-01-20T09:04:33.248Z,1.87
2023-01-20T09:07:04.904Z,2.06
2023-01-20T09:09:42.966Z,2.02
2023-01-20T09:12:17.872Z,2.24
2023-01-20T09:15:05.152Z,2.34
2023-01-20T09:17:44.697Z,2.04
2023-01-20T09:20:29.041Z,2.20
2023-01-20T09:23:07.079Z,2.29
2023-01-20T09:25:37.457Z,2.30
2023-01-20T09:28:09.218Z,2.39
2023-01-20T09:30:38.803Z,2.90
2023-01-20T09:33:13.726Z,2.60
2023-01-20T09:35:43.184Z,2.58
2023-01-20T09:38:32.664Z,2.40
2023-01-20T09:41:36.974Z,2.17
2023-01-20T09:44:20.781Z,2.42
2023-01-20T09:47:23.036Z,2.44
2023-01-20T09:50:29.674Z,2.59
2023-01-20T09:53:06.778Z,2.65
2023-01-20T09:55:51.621Z,2.35
2023-01-20T09:58:39.775Z,2.41
2023-01-20T10:01:20.576Z,2.53
2023-01-20T10:03:56.607Z,2.54
2023-01-20T10:06:32.898Z,2.54
2023-01-20T10:09:08.854Z,3.08
2023-01-20T10:11:44.764Z,2.92
2023-01-20T10:14:19.836Z,2.50
2023-01-20T10:17:00.370Z,2.55
2023-01-20T10:19:37.406Z,2.56
2023-01-20T10:22:19.144Z,2.55
2023-01-20T10:24:59.388Z,2.56
2023-01-20T10:27:34.890Z,2.68
2023-01-20T10:30:09.586Z,2.69
2023-01-20T10:32:40.411Z,2.44
2023-01-20T10:35:20.267Z,2.55
2023-01-20T10:37:59.148Z,2.49
2023-01-20T10:40:48.674Z,2.66
2023-01-20T10:43:20.008Z,2.83
2023-01-20T10:46:05.832Z,2.79
2023-01-20T10:48:51.616Z,2.88
2023-01-20T10:51:30.171Z,2.96
2023-01-20T10:54:13.701Z,2.63
2023-01-20T10:56:53.642Z,2.47
2023-01-20T10:59:28.743Z,2.37
2023-01-20T11:02:11.475Z,2.49
2023-01-20T11:04:42.887Z,2.84
2023-01-20T11:07:19.970Z,3.11
2023-01-20T11:09:57.087Z,2.94
2023-01-20T11:12:30.690Z,2.95
2023-01-20T11:15:02.035Z,2.93
2023-01-20T11:18:34.742Z,2.65
2023-01-20T11:21:06.640Z,2.46
2023-01-20T11:23:43.555Z,2.37
2023-01-20T11:26:31.426Z,2.57
2023-01-20T11:29:05.416Z,2.76
2023-01-20T11:31:49.415Z,2.45
2023-01-20T11:34:24.358Z,2.66
2023-01-20T11:37:18.101Z,2.49
2023-01-20T11:40:04.944Z,2.69
2023-01-20T11:42:50.297Z,2.57
2023-01-20T11:45:34.677Z,2.64
2023-01-20T11:48:06.793Z,2.89
2023-01-20T11:50:42.973Z,2.70
2023-01-20T11:53:22.727Z,2.72
2023-01-20T11:55:57.810Z,2.69
2023-01-20T11:58:36.826Z,2.75
2023-01-20T12:01:09.036Z,2.85
2023-01-20T12:04:38.374Z,2.73
2023-01-20T12:07:21.957Z,3.00
2023-01-20T12:09:54.939Z,3.10
2023-01-20T12:12:33.692Z,3.24
2023-01-20T12:15:21.689Z,3.21
2023-01-20T12:17:57.743Z,2.77
2023-01-20T12:20:53.599Z,2.89
2023-01-20T12:23:47.984Z,3.03
2023-01-20T12:26:23.314Z,3.04
2023-01-20T12:29:02.883Z,3.09
2023-01-20T12:31:38.375Z,3.07
2023-01-20T12:34:14.928Z,3.13
2023-01-20T12:37:09.245Z,2.90
2023-01-20T12:39:54.508Z,3.18
2023-01-20T12:42:50.449Z,3.26
2023-01-20T12:45:30.465Z,2.94
2023-01-20T12:48:22.797Z,3.02
2023-01-20T12:51:15.501Z,3.03
2023-01-20T12:54:19.247Z,2.87
2023-01-20T12:56:56.460Z,2.86
2023-01-20T12:59:35.672Z,2.78
2023-01-20T13:03:00.376Z,2.84
2023-01-20T13:06:04.151Z,2.89
2023-01-20T13:08:54.321Z,2.68
2023-01-20T13:11:36.912Z,2.91
2023-01-20T13:14:19.788Z,2.97
2023-01-20T13:16:52.439Z,3.03
2023-01-20T13:19:34.913Z,2.95
2023-01-20T13:22:13.736Z,3.22
2023-01-20T13:24:48.741Z,3.08
2023-01-20T13:27:23.933Z,2.73
2023-01-20T13:30:01.635Z,3.05
2023-01-20T13:32:36.837Z,3.08
2023-01-20T13:35:49.253Z,3.00
2023-01-20T13:38:28.477Z,3.03
2023-01-20T13:41:08.556Z,3.14
2023-01-20T13:43:53.335Z,2.85
2023-01-20T13:49:50.315Z,2.96
2023-01-20T14:06:10.698Z,2.90
2023-01-20T14:08:49.511Z,2.82
2023-01-20T14:11:21.845Z,2.97
2023-01-20T14:13:54.544Z,2.80
2023-01-20T14:16:33.636Z,2.90
2023-01-20T14:19:07.195Z,3.08
2023-01-20T14:21:45.976Z,3.00
2023-01-20T14:24:32.713Z,3.01
2023-01-20T14:27:11.948Z,3.06
2023-01-20T14:29:42.578Z,3.11
2023-01-20T14:32:29.073Z,3.22
2023-01-20T14:35:00.710Z,3.31
2023-01-20T14:37:44.835Z,3.04
2023-01-20T14:40:24.266Z,3.26
2023-01-20T14:43:02.017Z,3.04
2023-01-20T14:45:41.629Z,2.96
2023-01-20T14:48:19.136Z,2.78
2023-01-20T14:50:57.572Z,2.82
2023-01-20T14:53:27.345Z,2.50
2023-01-20T14:56:04.559Z,2.70
2023-01-20T14:58:34.241Z,2.71
2023-01-20T15:01:08.889Z,2.73
2023-01-20T15:03:38.128Z,2.77
2023-01-20T15:06:20.827Z,2.78
2023-01-20T15:09:06.935Z,2.85
2023-01-20T15:11:44.535Z,2.82
2023-01-20T15:14:14.712Z,2.84
2023-01-20T15:16:56.361Z,2.79
2023-01-20T15:19:50.658Z,2.94
2023-01-20T15:22:32.990Z,2.63
2023-01-20T15:25:14.545Z,2.59
2023-01-20T15:27:44.257Z,2.54
2023-01-20T15:30:24.436Z,2.59
2023-01-20T15:32:56.206Z,2.81
2023-01-20T15:35:29.277Z,2.70
2023-01-20T15:38:04.423Z,2.70
2023-01-20T15:40:36.584Z,2.76
2023-01-20T15:43:23.474Z,2.67
2023-01-20T15:46:19.378Z,2.58
2023-01-20T15:48:51.920Z,2.59
2023-01-20T15:58:26.135Z,2.54
2023-01-20T16:00:58.223Z,2.58
2023-01-20T16:03:38.513Z,2.77
2023-01-20T16:06:20.546Z,2.71
2023-01-20T16:08:51.679Z,2.71
2023-01-20T16:11:33.279Z,2.70
2023-01-20T16:14:14.804Z,2.84
2023-01-20T16:16:46.992Z,2.79
2023-01-20T16:19:21.267Z,2.72
2023-01-20T16:21:58.246Z,2.78
2023-01-20T16:24:27.983Z,2.58
2023-01-20T16:27:06.652Z,2.74
2023-01-20T16:29:39.518Z,2.74
2023-01-20T16:32:25.175Z,2.67
2023-01-20T16:35:05.277Z,2.76
2023-01-20T16:37:36.314Z,2.51
2023-01-20T16:40:08.305Z,2.55
2023-01-20T16:42:46.392Z,2.58
2023-01-20T16:45:30.205Z,2.63
2023-01-20T16:48:06.810Z,2.67
2023-01-20T16:50:44.078Z,2.41
2023-01-20T16:53:22.247Z,2.66
2023-01-20T16:55:56.648Z,2.72
2023-01-20T16:58:26.554Z,2.75
2023-01-20T17:01:06.989Z,2.76
2023-01-20T17:03:45.257Z,2.66
2023-01-20T17:06:23.827Z,2.57
2023-01-20T17:09:10.584Z,2.63
2023-01-20T17:11:52.353Z,2.62
2023-01-20T17:14:27.141Z,2.48
2023-01-20T17:17:05.206Z,2.57
2023-01-20T17:19:40.103Z,2.76
2023-01-20T17:22:15.175Z,2.69
2023-01-20T17:24:58.310Z,2.61
2023-01-20T17:27:29.693Z,2.58
2023-01-20T17:30:03.421Z,2.55
2023-01-20T17:32:38.976Z,2.56
2023-01-20T17:35:12.848Z,2.66
2023-01-20T17:38:04.987Z,2.59
2023-01-20T17:40:50.092Z,2.64
2023-01-20T17:43:47.879Z,2.75
2023-01-20T17:46:25.469Z,2.83
2023-01-20T17:48:58.461Z,2.77
2023-01-20T17:51:35.970Z,2.59
2023-01-20T17:54:20.974Z,2.74
2023-01-20T17:57:05.821Z,2.80
2023-01-20T17:59:43.815Z,2.87
2023-01-20T18:02:20.911Z,2.83
2023-01-20T18:05:18.231Z,2.85
2023-01-20T18:07:54.824Z,2.80
2023-01-20T18:10:38.782Z,2.77
2023-01-20T18:13:15.503Z,2.80
2023-01-20T18:15:50.682Z,2.85
2023-01-20T18:18:42.351Z,2.77
2023-01-20T18:21:32.464Z,2.62
2023-01-20T18:24:15.503Z,2.54
2023-01-20T18:26:50.722Z,2.54
2023-01-20T18:29:23.807Z,2.81
2023-01-20T18:32:15.091Z,2.54
2023-01-20T18:34:48.627Z,2.68
2023-01-20T18:37:31.005Z,2.74
2023-01-20T18:40:01.551Z,2.92
2023-01-20T18:42:34.120Z,2.63
2023-01-20T18:45:09.956Z,2.78
2023-01-20T18:47:42.529Z,2.88
2023-01-20T18:50:18.572Z,2.87
2023-01-20T18:52:52.344Z,2.48
2023-01-20T18:55:23.271Z,2.66
2023-01-20T19:00:55.009Z,2.55
2023-01-20T19:03:29.581Z,2.81
2023-01-20T19:06:12.031Z,2.53
2023-01-20T19:08:48.991Z,2.64
2023-01-20T19:11:29.498Z,2.58
2023-01-20T19:14:00.428Z,2.55
2023-01-20T19:16:45.629Z,2.66
2023-01-20T19:19:25.981Z,2.46
2023-01-20T19:22:01.112Z,2.40
2023-01-20T19:24:53.176Z,2.64
2023-01-20T19:27:29.041Z,2.57
2023-01-20T19:30:07.225Z,2.47
2023-01-20T19:32:45.213Z,2.44
2023-01-20T19:35:18.229Z,2.44
2023-01-20T19:37:57.211Z,2.55
2023-01-20T19:40:53.178Z,2.37
2023-01-20T19:43:36.699Z,2.31
2023-01-20T19:46:08.005Z,2.29
2023-01-20T19:48:43.028Z,2.03
2023-01-20T19:51:29.186Z,2.03
2023-01-20T19:54:11.167Z,2.02
2023-01-20T19:56:47.072Z,2.21
2023-01-20T19:59:23.318Z,2.23
2023-01-20T20:01:56.021Z,1.92
2023-01-20T20:04:50.446Z,1.93
2023-01-20T20:07:22.073Z,2.05
2023-01-20T20:10:02.914Z,2.14
2023-01-20T20:12:43.189Z,1.97
2023-01-20T20:15:27.414Z,2.08
2023-01-20T20:18:19.904Z,1.91
2023-01-20T20:21:00.517Z,2.04
2023-01-20T20:23:40.661Z,2.22
2023-01-20T20:26:17.604Z,2.19
2023-01-20T20:29:10.604Z,2.04
2023-01-20T20:31:44.761Z,2.14
2023-01-20T20:34:27.047Z,1.97
2023-01-20T20:37:04.253Z,2.22
2023-01-20T20:39:45.487Z,2.01
2023-01-20T20:42:21.269Z,2.06
2023-01-20T20:44:58.093Z,2.23
2023-01-20T20:47:39.688Z,2.04
2023-01-20T20:50:18.320Z,2.05
2023-01-20T20:53:08.650Z,2.21
2023-01-20T20:55:59.713Z,2.32
2023-01-20T20:58:30.654Z,2.18
2023-01-20T21:01:08.919Z,2.34
2023-01-20T21:03:42.361Z,2.28
2023-01-20T21:06:16.273Z,2.27
2023-01-20T21:08:48.874Z,2.23
2023-01-20T21:11:25.749Z,2.16
2023-01-20T21:14:01.734Z,2.23
2023-01-20T21:16:39.026Z,2.17
2023-01-20T21:19:14.024Z,1.98
2023-01-20T21:21:44.896Z,1.94
2023-01-20T21:24:15.571Z,2.15
2023-01-20T21:26:59.189Z,1.80
2023-01-20T21:29:39.203Z,1.74
2023-01-20T21:32:14.148Z,1.89
2023-01-20T21:34:46.701Z,1.77
2023-01-20T21:37:23.416Z,1.68
2023-01-20T21:39:56.278Z,1.43
2023-01-20T21:42:34.515Z,1.58
2023-01-20T21:45:13.191Z,1.50
2023-01-20T21:47:51.936Z,1.46
2023-01-20T21:50:42.891Z,1.74
2023-01-20T21:53:26.603Z,1.53
2023-01-20T21:55:58.891Z,1.62
2023-01-20T21:58:30.354Z,1.66
2023-01-20T22:01:07.479Z,1.71
2023-01-20T22:03:38.204Z,1.69
2023-01-20T22:06:15.669Z,1.80
2023-01-20T22:08:53.147Z,1.72
2023-01-20T22:11:25.004Z,1.74
2023-01-20T22:13:56.207Z,1.72
2023-01-20T22:16:35.248Z,1.75
2023-01-20T22:19:22.802Z,1.64
2023-01-20T22:21:52.588Z,1.51
2023-01-20T22:24:21.569Z,1.62
2023-01-20T22:26:51.867Z,1.49
2023-01-20T22:29:22.567Z,1.70
2023-01-20T22:32:07.549Z,1.61
2023-01-20T22:41:26.093Z,1.38
2023-01-20T22:43:56.312Z,1.15
2023-01-20T22:46:28.237Z,1.22
2023-01-20T22:51:59.279Z,1.09
2023-01-20T23:03:59.714Z,0.85
2023-01-20T23:31:16.919Z,0.72
2023-01-20T23:48:48.747Z,0.92
